Time;durP1;ratioP1;P1;durP2;ratioP2;P2;SDS_P1;SDS_P2;PMS_P1;PMS_P2;Temp;Humidity;BMP_temperature;BMP_pressure;BME280_temperature;BME280_humidity;BME280_pressure;Samples;Min_cycle;Max_cycle;Signal;HPM_P1;HPM_P2
2023/10/08 00:03:10;;;;;;;10.55;7.78;;;;;;;;;;5055919;28;20448;-47
2023/10/08 00:05:39;;;;;;;8.32;6.47;;;;;;;;;;5059104;28;20033;-49
2023/10/08 00:08:06;;;;;;;9.60;8.02;;;;;;;;;;5062204;28;20032;-46
2023/10/08 00:10:41;;;;;;;9.48;7.13;;;;;;;;;;5055373;28;20037;-46
2023/10/08 00:13:16;;;;;;;10.23;8.05;;;;;;;;;;5056062;28;20060;-50
2023/10/08 00:15:57;;;;;;;9.60;7.75;;;;;;;;;;5065212;28;20462;-46
2023/10/08 00:18:23;;;;;;;8.02;7.22;;;;;;;;;;5056603;28;20413;-49
2023/10/08 00:20:57;;;;;;;9.23;7.13;;;;;;;;;;5055922;28;20033;-48
2023/10/08 00:23:25;;;;;;;11.70;7.32;;;;;;;;;;5062301;28;20028;-49
2023/10/08 00:25:52;;;;;;;9.13;8.23;;;;;;;;;;5056244;28;20535;-51
2023/10/08 00:28:17;;;;;;;9.00;7.80;;;;;;;;;;5057298;28;20064;-49
2023/10/08 00:30:44;;;;;;;10.02;7.65;;;;;;;;;;5058172;28;20033;-52
2023/10/08 00:33:11;;;;;;;10.73;7.05;;;;;;;;;;5055011;28;20506;-48
2023/10/08 00:35:41;;;;;;;8.73;7.60;;;;;;;;;;5060245;28;20611;-48
2023/10/08 00:38:20;;;;;;;8.32;7.53;;;;;;;;;;5054353;28;20044;-49
2023/10/08 00:40:46;;;;;;;8.40;7.50;;;;;;;;;;5049441;28;20024;-48
2023/10/08 00:43:35;;;;;;;8.70;6.53;;;;;;;;;;5059575;28;20099;-47
2023/10/08 00:46:17;;;;;;;9.23;7.47;;;;;;;;;;5055074;28;20083;-51
2023/10/08 00:48:44;;;;;;;9.90;7.70;;;;;;;;;;5047124;28;20037;-46
2023/10/08 00:51:42;;;;;;;8.40;7.50;;;;;;;;;;5052149;28;20037;-48
2023/10/08 00:54:17;;;;;;;13.68;8.43;;;;;;;;;;5051262;28;20102;-49
2023/10/08 00:56:49;;;;;;;9.18;7.65;;;;;;;;;;5052245;28;20041;-49
2023/10/08 00:59:15;;;;;;;9.75;8.13;;;;;;;;;;5054261;28;20032;-49
2023/10/08 01:02:06;;;;;;;10.00;7.18;;;;;;;;;;5051567;28;20392;-51
2023/10/08 01:04:35;;;;;;;9.38;8.07;;;;;;;;;;5054863;28;20052;-50
2023/10/08 01:07:15;;;;;;;8.18;7.03;;;;;;;;;;5064883;28;20054;-49
2023/10/08 01:09:42;;;;;;;8.52;7.68;;;;;;;;;;5057214;28;20089;-51
2023/10/08 01:12:12;;;;;;;9.13;7.38;;;;;;;;;;5053107;28;20049;-52
2023/10/08 01:14:42;;;;;;;8.45;6.65;;;;;;;;;;5060108;28;20057;-47
2023/10/08 01:17:08;;;;;;;8.15;7.15;;;;;;;;;;5055253;28;20059;-49
2023/10/08 01:19:38;;;;;;;7.88;6.85;;;;;;;;;;5054680;28;20025;-46
2023/10/08 01:22:07;;;;;;;10.15;7.53;;;;;;;;;;5053953;28;20073;-51
2023/10/08 01:24:36;;;;;;;9.50;7.53;;;;;;;;;;5058783;28;20428;-50
2023/10/08 01:27:04;;;;;;;9.88;7.65;;;;;;;;;;5053506;28;20120;-47
2023/10/08 01:29:31;;;;;;;8.70;6.05;;;;;;;;;;5054558;28;20020;-47
2023/10/08 01:31:57;;;;;;;9.13;7.00;;;;;;;;;;5059489;28;20041;-47
2023/10/08 01:34:30;;;;;;;7.97;6.78;;;;;;;;;;5055271;28;20028;-46
2023/10/08 01:36:56;;;;;;;8.68;7.10;;;;;;;;;;5054582;28;20037;-47
2023/10/08 01:39:21;;;;;;;9.73;7.53;;;;;;;;;;5061875;28;20043;-51
2023/10/08 01:41:47;;;;;;;8.32;6.75;;;;;;;;;;5055843;28;20090;-49
2023/10/08 01:44:12;;;;;;;7.90;6.82;;;;;;;;;;5057720;28;20036;-48
2023/10/08 01:46:40;;;;;;;9.05;6.82;;;;;;;;;;5053392;28;20537;-47
2023/10/08 01:49:13;;;;;;;6.85;6.20;;;;;;;;;;5055326;28;20037;-48
2023/10/08 01:51:44;;;;;;;10.45;7.78;;;;;;;;;;5054672;28;20119;-46
2023/10/08 01:54:10;;;;;;;8.07;6.63;;;;;;;;;;5052830;28;20029;-46
2023/10/08 01:56:41;;;;;;;8.05;6.13;;;;;;;;;;5059640;28;20101;-48
2023/10/08 01:59:09;;;;;;;8.43;6.43;;;;;;;;;;5057991;28;20425;-47
2023/10/08 02:01:35;;;;;;;8.65;6.75;;;;;;;;;;5056166;28;20070;-48
2023/10/08 02:04:01;;;;;;;8.82;7.35;;;;;;;;;;5072416;28;20469;-50
2023/10/08 02:06:27;;;;;;;9.65;6.82;;;;;;;;;;5058715;28;20112;-47
2023/10/08 02:08:53;;;;;;;9.00;6.30;;;;;;;;;;5060832;28;20079;-48
2023/10/08 02:11:20;;;;;;;7.47;6.38;;;;;;;;;;5060723;28;20056;-51
2023/10/08 02:13:46;;;;;;;10.35;6.90;;;;;;;;;;5057112;28;20059;-48
2023/10/08 02:16:17;;;;;;;9.55;6.85;;;;;;;;;;5054511;28;20411;-49
2023/10/08 02:18:44;;;;;;;8.98;6.30;;;;;;;;;;5061932;28;20044;-47
2023/10/08 02:21:10;;;;;;;7.35;5.35;;;;;;;;;;5058887;28;20017;-50
2023/10/08 02:23:36;;;;;;;9.35;7.13;;;;;;;;;;5061317;28;20033;-48
2023/10/08 02:26:02;;;;;;;7.43;6.38;;;;;;;;;;5058516;28;20387;-46
2023/10/08 02:28:28;;;;;;;6.97;5.90;;;;;;;;;;5062583;28;20033;-46
2023/10/08 02:30:54;;;;;;;6.95;5.85;;;;;;;;;;5049352;28;20139;-48
2023/10/08 02:33:19;;;;;;;7.72;6.93;;;;;;;;;;5052752;28;20041;-46
2023/10/08 02:35:46;;;;;;;8.00;6.18;;;;;;;;;;5058188;28;20060;-45
2023/10/08 02:38:16;;;;;;;7.57;6.78;;;;;;;;;;5059076;28;20536;-47
2023/10/08 02:40:46;;;;;;;7.72;6.50;;;;;;;;;;5052431;28;20036;-47
2023/10/08 02:43:14;;;;;;;7.40;5.78;;;;;;;;;;5060730;28;20616;-47
2023/10/08 02:45:40;;;;;;;8.60;6.38;;;;;;;;;;5057932;28;20032;-49
2023/10/08 02:48:11;;;;;;;9.27;6.15;;;;;;;;;;5055349;28;20037;-47
2023/10/08 02:50:39;;;;;;;8.05;6.32;;;;;;;;;;5062948;28;20118;-46
2023/10/08 02:53:10;;;;;;;6.50;5.82;;;;;;;;;;5057855;28;20044;-48
2023/10/08 02:55:43;;;;;;;11.48;6.05;;;;;;;;;;5060069;28;20028;-49
2023/10/08 02:58:15;;;;;;;7.95;6.00;;;;;;;;;;5050889;28;20045;-47
2023/10/08 03:00:47;;;;;;;8.52;6.80;;;;;;;;;;5053602;28;20547;-45
2023/10/08 03:03:18;;;;;;;8.70;7.80;;;;;;;;;;5057276;28;20530;-49
2023/10/08 03:05:48;;;;;;;10.48;6.25;;;;;;;;;;5060244;28;20577;-51
2023/10/08 03:08:21;;;;;;;8.45;6.72;;;;;;;;;;5063650;28;20120;-47
2023/10/08 03:10:55;;;;;;;7.35;6.35;;;;;;;;;;5055882;28;20025;-51
2023/10/08 03:13:26;;;;;;;7.45;6.72;;;;;;;;;;5063871;28;20036;-47
2023/10/08 03:18:24;;;;;;;9.52;7.93;;;;;;;;;;5053539;28;20045;-49
2023/10/08 03:20:50;;;;;;;6.57;5.85;;;;;;;;;;5056902;28;20088;-48
2023/10/08 03:23:23;;;;;;;7.53;5.95;;;;;;;;;;5070928;28;20154;-49
2023/10/08 03:25:58;;;;;;;8.45;6.47;;;;;;;;;;5057552;28;20023;-48
2023/10/08 03:28:24;;;;;;;8.00;7.28;;;;;;;;;;5060358;28;20625;-51
2023/10/08 03:30:52;;;;;;;7.18;6.43;;;;;;;;;;5055965;28;20071;-48
2023/10/08 03:33:23;;;;;;;8.65;6.57;;;;;;;;;;5057099;28;20025;-49
2023/10/08 03:35:54;;;;;;;7.88;6.13;;;;;;;;;;5056872;28;20245;-47
2023/10/08 03:38:28;;;;;;;8.80;7.93;;;;;;;;;;5053230;28;20033;-49
2023/10/08 03:40:58;;;;;;;8.80;6.78;;;;;;;;;;5046420;28;20017;-47
2023/10/08 03:43:33;;;;;;;7.15;6.45;;;;;;;;;;5054699;28;20107;-47
2023/10/08 03:46:00;;;;;;;8.85;6.38;;;;;;;;;;5057656;28;20035;-48
2023/10/08 03:48:26;;;;;;;7.32;5.63;;;;;;;;;;5059640;28;20513;-50
2023/10/08 03:51:06;;;;;;;7.25;6.55;;;;;;;;;;5057691;28;20036;-49
2023/10/08 03:53:37;;;;;;;7.93;7.13;;;;;;;;;;5058343;28;20037;-50
2023/10/08 03:56:05;;;;;;;7.40;5.82;;;;;;;;;;5060333;28;20025;-48
2023/10/08 03:58:39;;;;;;;8.65;6.28;;;;;;;;;;5056752;28;20590;-48
2023/10/08 04:01:09;;;;;;;9.20;6.65;;;;;;;;;;5060074;28;20021;-48
2023/10/08 04:06:21;;;;;;;7.30;6.43;;;;;;;;;;5046538;28;20033;-50
2023/10/08 04:09:00;;;;;;;8.07;6.10;;;;;;;;;;5058970;28;20112;-49
2023/10/08 04:11:32;;;;;;;8.77;5.20;;;;;;;;;;5048369;28;20084;-52
2023/10/08 04:14:01;;;;;;;6.93;4.25;;;;;;;;;;5057332;28;20116;-51
2023/10/08 04:16:27;;;;;;;5.82;4.82;;;;;;;;;;5054339;28;20035;-50
2023/10/08 04:18:55;;;;;;;7.72;4.93;;;;;;;;;;5056772;28;20025;-52
2023/10/08 04:21:22;;;;;;;5.18;4.43;;;;;;;;;;5053085;28;20158;-51
2023/10/08 04:23:51;;;;;;;9.85;6.13;;;;;;;;;;5061947;28;20056;-49
2023/10/08 04:26:18;;;;;;;7.95;6.30;;;;;;;;;;5068547;28;20458;-50
2023/10/08 04:28:43;;;;;;;7.13;5.22;;;;;;;;;;5055004;28;20116;-48
2023/10/08 04:31:14;;;;;;;6.72;6.07;;;;;;;;;;5051085;28;20057;-48
2023/10/08 04:33:42;;;;;;;5.65;4.32;;;;;;;;;;5062767;28;20087;-50
2023/10/08 04:36:07;;;;;;;8.32;5.18;;;;;;;;;;5055959;28;20082;-44
2023/10/08 04:38:39;;;;;;;8.25;4.93;;;;;;;;;;5052429;28;20041;-45
2023/10/08 04:41:08;;;;;;;7.15;5.18;;;;;;;;;;5055671;28;20025;-49
2023/10/08 04:43:37;;;;;;;6.25;5.03;;;;;;;;;;5053538;28;20036;-49
2023/10/08 04:46:05;;;;;;;8.85;4.78;;;;;;;;;;5060040;28;20104;-44
2023/10/08 04:48:36;;;;;;;5.60;4.63;;;;;;;;;;5054230;28;20087;-49
2023/10/08 04:51:03;;;;;;;6.57;5.90;;;;;;;;;;5059563;28;20054;-45
2023/10/08 04:53:32;;;;;;;5.78;4.55;;;;;;;;;;5060888;28;20403;-50
2023/10/08 04:56:05;;;;;;;;;;;;;;;;;;5057645;28;20036;-50
2023/10/08 04:58:36;;;;;;;7.40;4.28;;;;;;;;;;5056217;28;20396;-49
2023/10/08 05:01:18;;;;;;;6.30;5.70;;;;;;;;;;5056148;28;20385;-51
2023/10/08 05:17:22;;;;;;;6.43;4.50;;;;;;;;;;5059659;28;20123;-47
2023/10/08 05:20:44;;;;;;;5.80;4.80;;;;;;;;;;5046657;28;20067;-49
2023/10/08 05:30:41;;;;;;;5.85;5.30;;;;;;;;;;5050890;28;20021;-48
2023/10/08 05:38:21;;;;;;;6.47;5.43;;;;;;;;;;5057675;28;20064;-45
2023/10/08 06:00:45;;;;;;;5.78;5.00;;;;;;;;;;5052235;28;20490;-50
2023/10/08 06:02:27;;;;;;;8.80;5.25;;;;;;;;;;5040925;28;20399;-47
2023/10/08 06:05:43;;;;;;;6.10;3.65;;;;;;;;;;5058071;28;20043;-48
2023/10/08 06:13:10;;;;;;;5.22;4.40;;;;;;;;;;5066959;28;20522;-49
2023/10/08 06:15:51;;;;;;;5.60;4.63;;;;;;;;;;5053935;28;20037;-48
2023/10/08 06:18:25;;;;;;;5.95;4.18;;;;;;;;;;5056652;28;20043;-48
2023/10/08 06:20:55;;;;;;;6.70;4.82;;;;;;;;;;5050792;28;20013;-51
2023/10/08 06:23:22;;;;;;;5.90;4.65;;;;;;;;;;5064378;28;20047;-50
2023/10/08 06:26:05;;;;;;;5.60;4.32;;;;;;;;;;5058678;28;20032;-50
2023/10/08 06:28:34;;;;;;;8.02;5.28;;;;;;;;;;5068578;28;20437;-46
2023/10/08 06:31:01;;;;;;;5.18;3.75;;;;;;;;;;5057180;28;20494;-48
2023/10/08 06:33:30;;;;;;;6.85;5.32;;;;;;;;;;5056270;28;20045;-47
2023/10/08 06:36:03;;;;;;;5.88;4.50;;;;;;;;;;5060204;28;20013;-48
2023/10/08 06:38:35;;;;;;;9.35;5.22;;;;;;;;;;5061764;28;20498;-50
2023/10/08 06:43:49;;;;;;;9.93;6.40;;;;;;;;;;5063884;28;20570;-47
2023/10/08 06:46:22;;;;;;;6.20;4.82;;;;;;;;;;5054853;28;20036;-49
2023/10/08 06:48:49;;;;;;;6.07;5.35;;;;;;;;;;5073888;28;20072;-47
2023/10/08 06:51:17;;;;;;;5.80;4.78;;;;;;;;;;5056292;28;20680;-50
2023/10/08 06:53:44;;;;;;;;;;;;;;;;;;5057395;28;20478;-49
2023/10/08 06:56:12;;;;;;;;;;;;;;;;;;5062064;28;19924;-51
2023/10/08 06:58:38;;;;;;;6.80;4.50;;;;;;;;;;5057418;28;19920;-50
2023/10/08 07:01:08;;;;;;;7.65;4.47;;;;;;;;;;5056449;28;20025;-50
2023/10/08 07:03:35;;;;;;;7.05;4.50;;;;;;;;;;5058183;28;20051;-50
2023/10/08 07:06:02;;;;;;;7.00;4.60;;;;;;;;;;5058138;28;20105;-52
2023/10/08 07:08:33;;;;;;;5.93;3.88;;;;;;;;;;5059745;28;20049;-49
2023/10/08 07:11:11;;;;;;;5.55;3.95;;;;;;;;;;5063991;28;20037;-50
2023/10/08 07:13:37;;;;;;;4.32;3.85;;;;;;;;;;5057523;28;20047;-48
2023/10/08 07:16:04;;;;;;;5.45;4.75;;;;;;;;;;5057068;28;20032;-46
2023/10/08 07:18:33;;;;;;;5.40;4.55;;;;;;;;;;5051863;28;20046;-49
2023/10/08 07:21:04;;;;;;;6.43;5.38;;;;;;;;;;5054489;28;20108;-50
2023/10/08 07:23:34;;;;;;;6.00;5.30;;;;;;;;;;5063441;28;20413;-51
2023/10/08 07:26:10;;;;;;;6.18;4.65;;;;;;;;;;5056642;28;20082;-48
2023/10/08 07:28:47;;;;;;;4.50;4.10;;;;;;;;;;5055977;28;20111;-52
2023/10/08 07:31:23;;;;;;;5.97;4.65;;;;;;;;;;5054345;28;20032;-50
2023/10/08 07:33:57;;;;;;;8.48;4.97;;;;;;;;;;5064487;28;20045;-47
2023/10/08 07:36:26;;;;;;;7.03;4.63;;;;;;;;;;5055387;28;20059;-51
2023/10/08 07:38:52;;;;;;;7.53;4.47;;;;;;;;;;5056261;28;20403;-47
2023/10/08 07:41:20;;;;;;;5.53;4.22;;;;;;;;;;5057844;28;20027;-47
2023/10/08 07:43:58;;;;;;;6.22;4.60;;;;;;;;;;5058722;28;20062;-44
2023/10/08 07:46:27;;;;;;;4.90;4.43;;;;;;;;;;5053968;28;20048;-46
2023/10/08 07:48:58;;;;;;;7.50;6.18;;;;;;;;;;5055805;28;20085;-47
2023/10/08 07:51:23;;;;;;;6.57;5.85;;;;;;;;;;5057854;28;20036;-49
2023/10/08 07:53:55;;;;;;;6.60;5.13;;;;;;;;;;5055684;28;20252;-46
2023/10/08 07:56:25;;;;;;;6.95;5.18;;;;;;;;;;5060112;28;20082;-48
2023/10/08 07:58:55;;;;;;;7.38;4.78;;;;;;;;;;5064878;28;20021;-50
2023/10/08 08:01:24;;;;;;;6.28;4.03;;;;;;;;;;5054412;28;20036;-47
2023/10/08 08:03:50;;;;;;;6.88;4.75;;;;;;;;;;5044302;28;20418;-47
2023/10/08 08:06:17;;;;;;;5.75;4.78;;;;;;;;;;5047881;28;20037;-46
2023/10/08 08:08:44;;;;;;;5.00;4.18;;;;;;;;;;5065895;28;20045;-51
2023/10/08 08:11:13;;;;;;;6.13;5.57;;;;;;;;;;5053597;28;20029;-48
2023/10/08 08:13:42;;;;;;;6.18;4.97;;;;;;;;;;5054948;28;20052;-47
2023/10/08 08:16:17;;;;;;;6.97;5.07;;;;;;;;;;5053771;28;20037;-51
2023/10/08 08:18:48;;;;;;;6.07;5.32;;;;;;;;;;5057092;28;20049;-47
2023/10/08 08:21:15;;;;;;;5.78;4.22;;;;;;;;;;5054766;28;20437;-47
2023/10/08 08:23:47;;;;;;;5.70;5.20;;;;;;;;;;5057367;28;20033;-51
2023/10/08 08:26:26;;;;;;;8.80;5.20;;;;;;;;;;5048483;28;20040;-47
2023/10/08 08:29:01;;;;;;;5.45;4.22;;;;;;;;;;5059372;28;20048;-51
2023/10/08 08:31:31;;;;;;;7.68;6.00;;;;;;;;;;5055682;28;20048;-46
2023/10/08 08:33:59;;;;;;;5.68;4.50;;;;;;;;;;5054485;28;20028;-48
2023/10/08 08:36:27;;;;;;;6.00;4.85;;;;;;;;;;5054909;28;20036;-48
2023/10/08 08:38:53;;;;;;;6.40;4.45;;;;;;;;;;5058621;28;20057;-50
2023/10/08 08:41:20;;;;;;;4.97;4.47;;;;;;;;;;5054623;28;20028;-49
2023/10/08 08:43:56;;;;;;;9.23;6.45;;;;;;;;;;5055127;28;20059;-49
2023/10/08 08:46:27;;;;;;;8.65;7.85;;;;;;;;;;5053651;28;20401;-48
2023/10/08 08:48:53;;;;;;;10.25;7.03;;;;;;;;;;5052419;28;20397;-50
2023/10/08 08:51:22;;;;;;;10.35;9.35;;;;;;;;;;5054359;28;20375;-47
2023/10/08 08:53:47;;;;;;;8.00;7.13;;;;;;;;;;5062317;28;20028;-49
2023/10/08 08:56:13;;;;;;;10.48;8.35;;;;;;;;;;5058704;28;20112;-51
2023/10/08 08:58:39;;;;;;;19.95;9.23;;;;;;;;;;5049606;28;20076;-48
2023/10/08 09:01:09;;;;;;;8.60;7.30;;;;;;;;;;5057287;28;20028;-49
2023/10/08 09:03:34;;;;;;;;;;;;;;;;;;5051602;28;20506;-48
2023/10/08 09:06:00;;;;;;;8.25;6.97;;;;;;;;;;5052957;28;19982;-49
2023/10/08 09:08:33;;;;;;;8.77;6.88;;;;;;;;;;5049071;28;20041;-49
2023/10/08 09:11:00;;;;;;;7.80;6.88;;;;;;;;;;5058743;28;20033;-45
2023/10/08 09:13:27;;;;;;;8.32;7.53;;;;;;;;;;5057185;28;20040;-49
2023/10/08 09:15:57;;;;;;;7.70;7.00;;;;;;;;;;5052947;28;20045;-50
2023/10/08 09:18:27;;;;;;;8.68;7.78;;;;;;;;;;5053835;28;20060;-45
2023/10/08 09:20:52;;;;;;;10.70;8.80;;;;;;;;;;5051274;28;20060;-50
2023/10/08 09:23:20;;;;;;;8.60;7.03;;;;;;;;;;5055996;28;20048;-47
2023/10/08 09:25:49;;;;;;;9.48;8.57;;;;;;;;;;5058327;28;20039;-45
2023/10/08 09:28:16;;;;;;;9.45;7.57;;;;;;;;;;5050553;28;20047;-49
2023/10/08 09:30:44;;;;;;;9.82;8.82;;;;;;;;;;5050674;28;20029;-49
2023/10/08 09:33:12;;;;;;;;;;;;;;;;;;5053673;28;20037;-49
2023/10/08 09:35:37;;;;;;;9.45;8.55;;;;;;;;;;5063969;28;19921;-48
2023/10/08 09:38:05;;;;;;;12.27;8.63;;;;;;;;;;5054181;28;20045;-51
2023/10/08 09:40:30;;;;;;;10.82;8.35;;;;;;;;;;5048579;28;20033;-48
2023/10/08 09:42:56;;;;;;;11.95;8.95;;;;;;;;;;5050247;28;20037;-51
2023/10/08 09:45:22;;;;;;;11.02;9.93;;;;;;;;;;5059358;28;20405;-47
2023/10/08 09:47:57;;;;;;;9.55;8.60;;;;;;;;;;5054266;28;20072;-47
2023/10/08 09:50:32;;;;;;;10.60;9.00;;;;;;;;;;5048454;28;20041;-46
2023/10/08 09:53:16;;;;;;;9.60;8.70;;;;;;;;;;5055157;28;20120;-48
2023/10/08 09:55:45;;;;;;;8.38;7.55;;;;;;;;;;5054689;28;20028;-47
2023/10/08 09:58:14;;;;;;;8.70;7.03;;;;;;;;;;5057494;28;20041;-47
2023/10/08 10:00:42;;;;;;;8.40;6.88;;;;;;;;;;5061186;28;20029;-50
2023/10/08 10:03:09;;;;;;;8.88;7.15;;;;;;;;;;5051763;28;20136;-47
2023/10/08 10:05:38;;;;;;;9.07;7.60;;;;;;;;;;5056763;28;20021;-48
2023/10/08 10:08:09;;;;;;;9.20;6.18;;;;;;;;;;5056216;28;20128;-47
2023/10/08 10:10:38;;;;;;;7.13;5.93;;;;;;;;;;5056443;28;20033;-49
2023/10/08 10:13:07;;;;;;;6.82;6.13;;;;;;;;;;5054570;28;20045;-49
2023/10/08 10:15:34;;;;;;;6.78;6.00;;;;;;;;;;5050949;28;20029;-46
2023/10/08 10:18:29;;;;;;;10.15;6.47;;;;;;;;;;5056354;28;20501;-48
2023/10/08 10:21:20;;;;;;;7.28;6.57;;;;;;;;;;5040919;28;20033;-49
2023/10/08 10:23:50;;;;;;;6.15;5.55;;;;;;;;;;5059385;28;20044;-50
2023/10/08 10:26:31;;;;;;;7.03;6.03;;;;;;;;;;5058186;28;20025;-51
2023/10/08 10:29:15;;;;;;;8.93;7.28;;;;;;;;;;5061118;28;20025;-49
2023/10/08 10:31:46;;;;;;;6.70;5.97;;;;;;;;;;5054959;28;20044;-50
2023/10/08 10:34:15;;;;;;;10.68;6.70;;;;;;;;;;5056864;28;20496;-46
2023/10/08 10:36:43;;;;;;;7.25;6.55;;;;;;;;;;5064810;28;20037;-49
2023/10/08 10:39:26;;;;;;;7.50;6.03;;;;;;;;;;5057925;28;20032;-51
2023/10/08 10:42:01;;;;;;;7.03;6.35;;;;;;;;;;5058938;28;20048;-50
2023/10/08 10:44:30;;;;;;;7.72;5.50;;;;;;;;;;5059721;28;20021;-47
2023/10/08 10:53:10;;;;;;;6.47;5.68;;;;;;;;;;5057858;28;20045;-46
2023/10/08 10:57:41;;;;;;;7.80;6.75;;;;;;;;;;5059439;28;20049;-46
2023/10/08 11:02:56;;;;;;;6.93;4.97;;;;;;;;;;5059221;28;20051;-49
2023/10/08 11:05:28;;;;;;;8.48;5.63;;;;;;;;;;5057491;28;20024;-48
2023/10/08 11:08:00;;;;;;;7.30;6.68;;;;;;;;;;5061785;28;20554;-48
2023/10/08 11:10:28;;;;;;;7.40;6.50;;;;;;;;;;5068559;28;20120;-50
2023/10/08 11:12:54;;;;;;;6.75;5.40;;;;;;;;;;5055088;28;20057;-51
2023/10/08 11:15:23;;;;;;;5.97;5.43;;;;;;;;;;5060746;28;20044;-47
2023/10/08 11:17:50;;;;;;;8.05;6.07;;;;;;;;;;5059471;28;20098;-49
2023/10/08 11:20:26;;;;;;;5.97;5.35;;;;;;;;;;5063809;28;20028;-48
2023/10/08 11:22:53;;;;;;;5.57;4.88;;;;;;;;;;5055284;28;20037;-47
2023/10/08 11:25:30;;;;;;;6.70;6.05;;;;;;;;;;5060501;28;20036;-48
2023/10/08 11:28:01;;;;;;;7.07;6.47;;;;;;;;;;5051881;28;20037;-48
2023/10/08 11:30:30;;;;;;;6.88;4.90;;;;;;;;;;5058605;28;20123;-43
2023/10/08 11:32:57;;;;;;;6.35;5.43;;;;;;;;;;5055326;28;20498;-45
2023/10/08 11:35:22;;;;;;;8.82;7.05;;;;;;;;;;5066227;28;20035;-48
2023/10/08 11:37:51;;;;;;;5.43;4.65;;;;;;;;;;5045498;28;20064;-46
2023/10/08 11:40:28;;;;;;;5.85;5.05;;;;;;;;;;5045517;28;20474;-48
2023/10/08 11:42:58;;;;;;;6.20;5.60;;;;;;;;;;5058671;28;20036;-48
2023/10/08 11:45:24;;;;;;;7.30;5.45;;;;;;;;;;5057323;28;20078;-45
2023/10/08 11:47:55;;;;;;;7.15;5.13;;;;;;;;;;5059209;28;20822;-47
2023/10/08 11:50:30;;;;;;;5.68;4.75;;;;;;;;;;5062997;28;20029;-48
2023/10/08 11:53:03;;;;;;;5.93;4.90;;;;;;;;;;5057914;28;20037;-46
2023/10/08 11:55:34;;;;;;;6.78;6.20;;;;;;;;;;5054715;28;20406;-47
2023/10/08 11:58:01;;;;;;;6.10;5.50;;;;;;;;;;5054021;28;20037;-47
2023/10/08 12:00:26;;;;;;;6.13;4.82;;;;;;;;;;5057261;28;20040;-48
2023/10/08 12:02:54;;;;;;;5.97;4.85;;;;;;;;;;5058855;28;20496;-47
2023/10/08 12:05:22;;;;;;;5.60;5.10;;;;;;;;;;5057277;28;20021;-49
2023/10/08 12:07:50;;;;;;;5.60;5.07;;;;;;;;;;5056365;28;20070;-47
2023/10/08 12:10:22;;;;;;;5.70;5.10;;;;;;;;;;5065313;28;20045;-46
2023/10/08 12:12:52;;;;;;;5.55;4.82;;;;;;;;;;5048905;28;20033;-45
2023/10/08 12:15:21;;;;;;;6.65;6.05;;;;;;;;;;5048449;28;20119;-47
2023/10/08 12:18:08;;;;;;;5.20;4.53;;;;;;;;;;5057080;28;20116;-46
2023/10/08 12:20:43;;;;;;;5.65;3.85;;;;;;;;;;5054679;28;20052;-48
2023/10/08 12:23:25;;;;;;;6.00;5.15;;;;;;;;;;5057331;28;20044;-50
2023/10/08 12:25:59;;;;;;;5.38;3.88;;;;;;;;;;5053785;28;20048;-45
2023/10/08 12:28:28;;;;;;;5.78;4.03;;;;;;;;;;5051843;28;20394;-46
2023/10/08 12:30:55;;;;;;;6.45;5.85;;;;;;;;;;5057003;28;20025;-47
2023/10/08 12:33:24;;;;;;;4.70;4.30;;;;;;;;;;5053346;28;20669;-45
2023/10/08 12:35:49;;;;;;;;;;;;;;;;;;5066009;28;20029;-49
2023/10/08 12:38:14;;;;;;;6.70;5.15;;;;;;;;;;5055478;28;20381;-47
2023/10/08 12:40:53;;;;;;;4.80;4.00;;;;;;;;;;5059677;28;20023;-47
2023/10/08 12:43:22;;;;;;;5.28;4.13;;;;;;;;;;5061232;28;20036;-49
2023/10/08 12:45:52;;;;;;;5.75;3.60;;;;;;;;;;5056188;28;20891;-45
2023/10/08 12:48:27;;;;;;;4.20;3.83;;;;;;;;;;5065764;28;20577;-48
2023/10/08 12:50:56;;;;;;;5.05;4.55;;;;;;;;;;5053648;28;20032;-47
2023/10/08 12:53:26;;;;;;;5.80;3.70;;;;;;;;;;5049366;28;20669;-47
2023/10/08 12:55:56;;;;;;;4.53;4.13;;;;;;;;;;5056768;28;20016;-47
2023/10/08 12:58:29;;;;;;;6.38;5.75;;;;;;;;;;5059886;28;20039;-47
2023/10/08 13:00:58;;;;;;;5.32;4.60;;;;;;;;;;5054184;28;20019;-48
2023/10/08 13:03:30;;;;;;;5.38;4.88;;;;;;;;;;5061117;28;20048;-47
2023/10/08 13:06:03;;;;;;;5.38;4.30;;;;;;;;;;5049090;28;20029;-45
2023/10/08 13:08:35;;;;;;;7.20;6.70;;;;;;;;;;5057386;28;20037;-49
2023/10/08 13:11:01;;;;;;;5.35;4.72;;;;;;;;;;5057401;28;20033;-45
2023/10/08 13:13:36;;;;;;;5.40;4.70;;;;;;;;;;5054735;28;20143;-45
2023/10/08 13:16:07;;;;;;;6.93;5.50;;;;;;;;;;5058231;28;20044;-46
2023/10/08 13:18:42;;;;;;;4.97;4.57;;;;;;;;;;5055012;28;20071;-48
2023/10/08 13:21:09;;;;;;;6.13;5.20;;;;;;;;;;5060535;28;20397;-48
2023/10/08 13:23:35;;;;;;;4.68;4.28;;;;;;;;;;5057536;28;20037;-49
2023/10/08 13:26:04;;;;;;;5.63;5.05;;;;;;;;;;5055178;28;20504;-47
2023/10/08 13:28:29;;;;;;;5.45;4.80;;;;;;;;;;5051053;28;20031;-49
2023/10/08 13:30:55;;;;;;;6.72;5.60;;;;;;;;;;5045636;28;20029;-47
2023/10/08 13:33:23;;;;;;;10.07;5.53;;;;;;;;;;5059401;28;20033;-46
2023/10/08 13:35:49;;;;;;;6.75;5.20;;;;;;;;;;5051557;28;20067;-54
2023/10/08 13:38:21;;;;;;;6.32;5.53;;;;;;;;;;5052919;28;20033;-45
2023/10/08 13:41:14;;;;;;;6.97;5.68;;;;;;;;;;5054095;28;20021;-51
2023/10/08 13:43:33;;;;;;;6.53;5.18;;;;;;;;;;5055263;28;20116;-45
2023/10/08 13:46:08;;;;;;;6.82;5.63;;;;;;;;;;5058431;28;20033;-52
2023/10/08 13:48:35;;;;;;;7.57;5.80;;;;;;;;;;5054431;28;20121;-45
2023/10/08 13:51:05;;;;;;;10.23;7.07;;;;;;;;;;5056374;28;20032;-48
2023/10/08 13:53:36;;;;;;;9.77;7.03;;;;;;;;;;5049569;28;20040;-51
2023/10/08 13:56:04;;;;;;;6.82;6.05;;;;;;;;;;5049865;28;20045;-48
2023/10/08 13:58:40;;;;;;;7.43;5.93;;;;;;;;;;5061058;28;20490;-48
2023/10/08 14:01:18;;;;;;;7.70;6.50;;;;;;;;;;5049549;28;20143;-49
2023/10/08 14:03:44;;;;;;;8.88;5.03;;;;;;;;;;5064215;28;20158;-45
2023/10/08 14:06:09;;;;;;;7.03;5.78;;;;;;;;;;5055822;28;20089;-48
2023/10/08 14:08:36;;;;;;;6.60;5.88;;;;;;;;;;5053803;28;20033;-46
2023/10/08 14:11:04;;;;;;;7.00;5.97;;;;;;;;;;5058393;28;20684;-50
2023/10/08 14:13:31;;;;;;;9.93;5.75;;;;;;;;;;5055057;28;20037;-46
2023/10/08 14:15:57;;;;;;;8.63;6.13;;;;;;;;;;5059239;28;20025;-48
2023/10/08 14:18:28;;;;;;;8.52;6.75;;;;;;;;;;5057337;28;20106;-46
2023/10/08 14:20:54;;;;;;;7.18;6.45;;;;;;;;;;5064958;28;20024;-47
2023/10/08 14:23:25;;;;;;;7.47;6.45;;;;;;;;;;5059630;28;20260;-49
2023/10/08 14:25:51;;;;;;;7.53;6.55;;;;;;;;;;5055600;28;20029;-50
2023/10/08 14:28:40;;;;;;;8.23;6.72;;;;;;;;;;5051844;28;20642;-44
2023/10/08 14:31:03;;;;;;;7.75;6.93;;;;;;;;;;5061473;28;20033;-45
2023/10/08 14:33:32;;;;;;;7.88;5.95;;;;;;;;;;5064295;28;20036;-48
2023/10/08 14:44:09;;;;;;;7.28;5.93;;;;;;;;;;5048227;28;20120;-48
2023/10/08 14:46:36;;;;;;;8.45;6.40;;;;;;;;;;5063814;28;20122;-49
2023/10/08 14:49:02;;;;;;;6.88;5.80;;;;;;;;;;5061761;28;20092;-46
2023/10/08 14:51:30;;;;;;;8.20;7.40;;;;;;;;;;5055492;28;20025;-50
2023/10/08 14:53:55;;;;;;;7.53;6.82;;;;;;;;;;5062053;28;20020;-48
2023/10/08 14:56:21;;;;;;;6.53;5.30;;;;;;;;;;5056131;28;20021;-51
2023/10/08 14:58:47;;;;;;;7.32;6.10;;;;;;;;;;5057923;28;20025;-50
2023/10/08 15:01:14;;;;;;;8.43;5.93;;;;;;;;;;5055620;28;20028;-45
2023/10/08 15:03:40;;;;;;;6.85;5.43;;;;;;;;;;5055353;28;20043;-46
2023/10/08 15:06:07;;;;;;;6.85;6.15;;;;;;;;;;5067066;28;20474;-45
2023/10/08 15:08:33;;;;;;;7.05;5.22;;;;;;;;;;5057621;28;20109;-49
2023/10/08 15:11:00;;;;;;;9.55;6.45;;;;;;;;;;5060629;28;20507;-49
2023/10/08 15:13:26;;;;;;;6.70;6.10;;;;;;;;;;5069711;28;20479;-49
2023/10/08 15:15:51;;;;;;;7.57;6.88;;;;;;;;;;5056443;28;20043;-47
2023/10/08 15:18:18;;;;;;;8.20;4.93;;;;;;;;;;5061374;28;20451;-48
2023/10/08 15:20:44;;;;;;;6.38;4.45;;;;;;;;;;5059874;28;20025;-50
2023/10/08 15:23:11;;;;;;;7.10;5.38;;;;;;;;;;5057562;28;20522;-47
2023/10/08 15:25:38;;;;;;;8.40;6.05;;;;;;;;;;5061118;28;20021;-48
2023/10/08 15:28:04;;;;;;;7.90;6.53;;;;;;;;;;5064270;28;20044;-48
2023/10/08 15:30:29;;;;;;;6.15;5.45;;;;;;;;;;5061825;28;20029;-52
2023/10/08 15:32:55;;;;;;;7.53;5.35;;;;;;;;;;5057356;28;20029;-47
2023/10/08 15:35:23;;;;;;;7.72;5.13;;;;;;;;;;5063120;28;20020;-47
2023/10/08 15:37:48;;;;;;;6.72;5.32;;;;;;;;;;5057728;28;20052;-49
2023/10/08 15:40:17;;;;;;;7.88;7.13;;;;;;;;;;5060639;28;20033;-49
2023/10/08 15:42:51;;;;;;;6.72;5.07;;;;;;;;;;5055558;28;20044;-49
2023/10/08 15:45:17;;;;;;;7.47;6.18;;;;;;;;;;5052863;28;20112;-48
2023/10/08 15:47:43;;;;;;;7.85;5.10;;;;;;;;;;5056645;28;20068;-52
2023/10/08 15:50:12;;;;;;;6.40;5.40;;;;;;;;;;5056944;28;20033;-48
2023/10/08 15:52:37;;;;;;;7.82;6.05;;;;;;;;;;5063364;28;20040;-48
2023/10/08 15:55:07;;;;;;;6.95;6.28;;;;;;;;;;5054929;28;20025;-48
2023/10/08 15:57:33;;;;;;;7.55;5.47;;;;;;;;;;5056719;28;20049;-47
2023/10/08 15:59:59;;;;;;;8.35;5.72;;;;;;;;;;5056012;28;20040;-48
2023/10/08 16:02:24;;;;;;;6.47;4.47;;;;;;;;;;5054420;28;20095;-44
2023/10/08 16:04:49;;;;;;;6.05;5.28;;;;;;;;;;5062495;28;20032;-46
2023/10/08 16:07:15;;;;;;;5.43;4.53;;;;;;;;;;5055722;28;20068;-51
2023/10/08 16:09:43;;;;;;;9.13;6.18;;;;;;;;;;5058302;28;20033;-48
2023/10/08 16:12:09;;;;;;;7.13;5.30;;;;;;;;;;5050380;28;20041;-46
2023/10/08 16:14:34;;;;;;;7.35;6.63;;;;;;;;;;5052580;28;20032;-50
2023/10/08 16:16:59;;;;;;;6.40;5.03;;;;;;;;;;5063530;28;20075;-48
2023/10/08 16:19:28;;;;;;;7.05;6.35;;;;;;;;;;5056893;28;20478;-50